sensor_id;sensor_type;location;lat;lon;timestamp;P1;durP1;ratioP1;P2;durP2;ratioP2
68888;SDS011;55930;47.412;8.790;2023-02-01T00:01:46;10.93;;;7.45;;
68888;SDS011;55930;47.412;8.790;2023-02-01T00:05:24;12.77;;;7.80;;
68888;SDS011;55930;47.412;8.790;2023-02-01T00:08:47;12.13;;;8.77;;
68888;SDS011;55930;47.412;8.790;2023-02-01T00:12:07;13.77;;;8.13;;
68888;SDS011;55930;47.412;8.790;2023-02-01T00:15:28;12.70;;;7.97;;
68888;SDS011;55930;47.412;8.790;2023-02-01T00:18:49;11.57;;;8.13;;
68888;SDS011;55930;47.412;8.790;2023-02-01T00:22:11;12.02;;;8.68;;
68888;SDS011;55930;47.412;8.790;2023-02-01T00:25:31;12.37;;;8.87;;
68888;SDS011;55930;47.412;8.790;2023-02-01T00:28:52;14.33;;;10.43;;
68888;SDS011;55930;47.412;8.790;2023-02-01T00:32:13;15.02;;;11.40;;
68888;SDS011;55930;47.412;8.790;2023-02-01T00:35:34;13.53;;;10.07;;
68888;SDS011;55930;47.412;8.790;2023-02-01T00:38:57;14.65;;;9.63;;
68888;SDS011;55930;47.412;8.790;2023-02-01T00:42:17;13.43;;;10.30;;
68888;SDS011;55930;47.412;8.790;2023-02-01T00:45:38;15.97;;;10.03;;
68888;SDS011;55930;47.412;8.790;2023-02-01T00:48:58;14.53;;;10.20;;
68888;SDS011;55930;47.412;8.790;2023-02-01T00:52:19;17.30;;;11.00;;
68888;SDS011;55930;47.412;8.790;2023-02-01T00:55:44;16.50;;;10.02;;
68888;SDS011;55930;47.412;8.790;2023-02-01T00:59:05;14.32;;;9.82;;
68888;SDS011;55930;47.412;8.790;2023-02-01T01:02:26;14.63;;;10.43;;
68888;SDS011;55930;47.412;8.790;2023-02-01T01:05:47;15.90;;;10.20;;
68888;SDS011;55930;47.412;8.790;2023-02-01T01:09:09;15.25;;;10.75;;
68888;SDS011;55930;47.412;8.790;2023-02-01T01:12:32;13.70;;;10.15;;
68888;SDS011;55930;47.412;8.790;2023-02-01T01:15:52;15.43;;;10.33;;
68888;SDS011;55930;47.412;8.790;2023-02-01T01:19:12;16.13;;;10.03;;
68888;SDS011;55930;47.412;8.790;2023-02-01T01:22:33;14.40;;;10.60;;
68888;SDS011;55930;47.412;8.790;2023-02-01T01:25:53;18.77;;;11.40;;
68888;SDS011;55930;47.412;8.790;2023-02-01T01:29:14;16.10;;;10.27;;
68888;SDS011;55930;47.412;8.790;2023-02-01T01:32:34;13.27;;;9.10;;
68888;SDS011;55930;47.412;8.790;2023-02-01T01:35:54;14.17;;;10.00;;
68888;SDS011;55930;47.412;8.790;2023-02-01T01:39:15;12.53;;;9.20;;
68888;SDS011;55930;47.412;8.790;2023-02-01T01:42:39;16.43;;;10.17;;
68888;SDS011;55930;47.412;8.790;2023-02-01T01:46:01;14.02;;;9.82;;
68888;SDS011;55930;47.412;8.790;2023-02-01T01:49:23;13.40;;;9.27;;
68888;SDS011;55930;47.412;8.790;2023-02-01T01:52:46;15.80;;;9.45;;
68888;SDS011;55930;47.412;8.790;2023-02-01T01:56:11;13.43;;;9.27;;
68888;SDS011;55930;47.412;8.790;2023-02-01T01:59:32;11.52;;;8.68;;
68888;SDS011;55930;47.412;8.790;2023-02-01T02:03:03;15.75;;;10.10;;
68888;SDS011;55930;47.412;8.790;2023-02-01T02:06:51;12.35;;;8.13;;
68888;SDS011;55930;47.412;8.790;2023-02-01T02:10:15;12.45;;;8.20;;
68888;SDS011;55930;47.412;8.790;2023-02-01T02:14:11;11.00;;;8.13;;
68888;SDS011;55930;47.412;8.790;2023-02-01T02:21:12;11.93;;;7.90;;
68888;SDS011;55930;47.412;8.790;2023-02-01T02:32:21;11.80;;;7.93;;
68888;SDS011;55930;47.412;8.790;2023-02-01T02:35:59;13.23;;;8.27;;
68888;SDS011;55930;47.412;8.790;2023-02-01T02:46:46;11.18;;;7.97;;
68888;SDS011;55930;47.412;8.790;2023-02-01T02:50:29;11.77;;;8.27;;
68888;SDS011;55930;47.412;8.790;2023-02-01T02:54:15;11.50;;;8.05;;
68888;SDS011;55930;47.412;8.790;2023-02-01T02:57:59;12.00;;;8.07;;
68888;SDS011;55930;47.412;8.790;2023-02-01T03:01:38;7.75;;;5.50;;
68888;SDS011;55930;47.412;8.790;2023-02-01T03:05:21;11.15;;;7.50;;
68888;SDS011;55930;47.412;8.790;2023-02-01T03:08:42;11.55;;;8.13;;
68888;SDS011;55930;47.412;8.790;2023-02-01T03:12:06;10.32;;;7.57;;
68888;SDS011;55930;47.412;8.790;2023-02-01T03:16:02;11.65;;;7.40;;
68888;SDS011;55930;47.412;8.790;2023-02-01T03:19:34;9.55;;;7.30;;
68888;SDS011;55930;47.412;8.790;2023-02-01T03:22:59;10.73;;;7.15;;
68888;SDS011;55930;47.412;8.790;2023-02-01T03:26:20;11.80;;;7.85;;
68888;SDS011;55930;47.412;8.790;2023-02-01T03:33:31;11.80;;;7.50;;
68888;SDS011;55930;47.412;8.790;2023-02-01T03:36:53;11.18;;;7.30;;
68888;SDS011;55930;47.412;8.790;2023-02-01T03:40:24;13.00;;;8.00;;
68888;SDS011;55930;47.412;8.790;2023-02-01T03:47:22;12.82;;;6.93;;
68888;SDS011;55930;47.412;8.790;2023-02-01T03:50:47;12.63;;;7.78;;
68888;SDS011;55930;47.412;8.790;2023-02-01T03:54:12;11.70;;;7.75;;
68888;SDS011;55930;47.412;8.790;2023-02-01T03:57:37;12.98;;;7.50;;
68888;SDS011;55930;47.412;8.790;2023-02-01T04:01:01;14.90;;;7.82;;
68888;SDS011;55930;47.412;8.790;2023-02-01T04:04:21;9.63;;;7.60;;
68888;SDS011;55930;47.412;8.790;2023-02-01T04:07:42;10.83;;;7.43;;
68888;SDS011;55930;47.412;8.790;2023-02-01T04:11:02;10.13;;;7.77;;
68888;SDS011;55930;47.412;8.790;2023-02-01T04:14:23;10.23;;;7.17;;
68888;SDS011;55930;47.412;8.790;2023-02-01T04:17:43;10.93;;;7.70;;
68888;SDS011;55930;47.412;8.790;2023-02-01T04:21:04;11.05;;;8.23;;
68888;SDS011;55930;47.412;8.790;2023-02-01T04:24:25;10.83;;;7.83;;
68888;SDS011;55930;47.412;8.790;2023-02-01T04:27:47;10.63;;;8.27;;
68888;SDS011;55930;47.412;8.790;2023-02-01T04:31:08;10.97;;;7.73;;
68888;SDS011;55930;47.412;8.790;2023-02-01T04:34:28;12.20;;;8.97;;
68888;SDS011;55930;47.412;8.790;2023-02-01T04:37:49;11.50;;;8.00;;
68888;SDS011;55930;47.412;8.790;2023-02-01T04:41:09;14.50;;;8.50;;
68888;SDS011;55930;47.412;8.790;2023-02-01T04:44:30;12.37;;;8.93;;
68888;SDS011;55930;47.412;8.790;2023-02-01T04:47:50;12.70;;;8.60;;
68888;SDS011;55930;47.412;8.790;2023-02-01T04:51:11;12.63;;;7.83;;
68888;SDS011;55930;47.412;8.790;2023-02-01T04:54:31;11.27;;;8.00;;
68888;SDS011;55930;47.412;8.790;2023-02-01T04:57:51;11.00;;;8.30;;
68888;SDS011;55930;47.412;8.790;2023-02-01T05:01:12;11.53;;;8.03;;
68888;SDS011;55930;47.412;8.790;2023-02-01T05:04:34;13.45;;;8.27;;
68888;SDS011;55930;47.412;8.790;2023-02-01T05:07:55;10.87;;;8.63;;
68888;SDS011;55930;47.412;8.790;2023-02-01T05:11:15;10.77;;;7.83;;
68888;SDS011;55930;47.412;8.790;2023-02-01T05:14:54;10.77;;;8.30;;
68888;SDS011;55930;47.412;8.790;2023-02-01T05:18:15;10.23;;;7.57;;
68888;SDS011;55930;47.412;8.790;2023-02-01T05:21:35;11.80;;;8.47;;
68888;SDS011;55930;47.412;8.790;2023-02-01T05:24:56;13.10;;;8.70;;
68888;SDS011;55930;47.412;8.790;2023-02-01T05:28:16;13.37;;;9.13;;
68888;SDS011;55930;47.412;8.790;2023-02-01T05:31:37;12.83;;;9.50;;
68888;SDS011;55930;47.412;8.790;2023-02-01T05:34:57;15.57;;;9.68;;
68888;SDS011;55930;47.412;8.790;2023-02-01T05:38:18;14.13;;;9.80;;
68888;SDS011;55930;47.412;8.790;2023-02-01T05:41:38;14.20;;;10.00;;
68888;SDS011;55930;47.412;8.790;2023-02-01T05:44:59;14.63;;;9.07;;
68888;SDS011;55930;47.412;8.790;2023-02-01T05:48:19;10.60;;;7.70;;
68888;SDS011;55930;47.412;8.790;2023-02-01T05:51:42;14.02;;;8.93;;
68888;SDS011;55930;47.412;8.790;2023-02-01T05:55:05;12.13;;;8.30;;
68888;SDS011;55930;47.412;8.790;2023-02-01T05:58:28;10.60;;;7.33;;
68888;SDS011;55930;47.412;8.790;2023-02-01T06:01:51;13.60;;;8.63;;
68888;SDS011;55930;47.412;8.790;2023-02-01T06:05:14;14.15;;;8.20;;
68888;SDS011;55930;47.412;8.790;2023-02-01T06:08:34;12.17;;;7.63;;
68888;SDS011;55930;47.412;8.790;2023-02-01T06:12:00;12.18;;;8.82;;
68888;SDS011;55930;47.412;8.790;2023-02-01T06:15:21;12.18;;;7.00;;
68888;SDS011;55930;47.412;8.790;2023-02-01T06:18:41;14.10;;;8.87;;
68888;SDS011;55930;47.412;8.790;2023-02-01T06:22:02;12.43;;;9.27;;
68888;SDS011;55930;47.412;8.790;2023-02-01T06:25:23;14.73;;;8.60;;
68888;SDS011;55930;47.412;8.790;2023-02-01T06:28:46;10.85;;;8.25;;
68888;SDS011;55930;47.412;8.790;2023-02-01T06:32:09;14.17;;;8.23;;
68888;SDS011;55930;47.412;8.790;2023-02-01T06:35:30;12.73;;;8.90;;
68888;SDS011;55930;47.412;8.790;2023-02-01T06:38:51;13.80;;;9.63;;
68888;SDS011;55930;47.412;8.790;2023-02-01T06:42:12;14.10;;;9.02;;
68888;SDS011;55930;47.412;8.790;2023-02-01T06:45:32;13.37;;;8.90;;
68888;SDS011;55930;47.412;8.790;2023-02-01T06:48:55;14.27;;;8.40;;
68888;SDS011;55930;47.412;8.790;2023-02-01T06:52:15;11.07;;;6.83;;
68888;SDS011;55930;47.412;8.790;2023-02-01T06:55:36;12.90;;;8.70;;
68888;SDS011;55930;47.412;8.790;2023-02-01T06:58:56;13.47;;;8.90;;
68888;SDS011;55930;47.412;8.790;2023-02-01T07:02:17;13.20;;;8.93;;
68888;SDS011;55930;47.412;8.790;2023-02-01T07:05:37;15.43;;;9.30;;
68888;SDS011;55930;47.412;8.790;2023-02-01T07:08:58;13.93;;;9.37;;
68888;SDS011;55930;47.412;8.790;2023-02-01T07:12:20;14.27;;;9.80;;
68888;SDS011;55930;47.412;8.790;2023-02-01T07:15:43;13.48;;;9.63;;
68888;SDS011;55930;47.412;8.790;2023-02-01T07:19:04;14.50;;;10.13;;
68888;SDS011;55930;47.412;8.790;2023-02-01T07:22:25;11.60;;;8.53;;
68888;SDS011;55930;47.412;8.790;2023-02-01T07:25:46;12.60;;;8.45;;
68888;SDS011;55930;47.412;8.790;2023-02-01T07:29:06;13.88;;;9.65;;
68888;SDS011;55930;47.412;8.790;2023-02-01T07:32:27;14.03;;;9.67;;
68888;SDS011;55930;47.412;8.790;2023-02-01T07:35:49;13.32;;;9.18;;
68888;SDS011;55930;47.412;8.790;2023-02-01T07:39:10;14.52;;;9.48;;
68888;SDS011;55930;47.412;8.790;2023-02-01T07:42:30;13.27;;;9.37;;
68888;SDS011;55930;47.412;8.790;2023-02-01T07:45:54;12.67;;;9.10;;
68888;SDS011;55930;47.412;8.790;2023-02-01T07:49:15;18.02;;;11.13;;
68888;SDS011;55930;47.412;8.790;2023-02-01T07:52:37;16.10;;;10.68;;
68888;SDS011;55930;47.412;8.790;2023-02-01T07:55:59;14.77;;;10.63;;
68888;SDS011;55930;47.412;8.790;2023-02-01T07:59:20;16.42;;;11.15;;
68888;SDS011;55930;47.412;8.790;2023-02-01T08:02:44;18.63;;;11.83;;
68888;SDS011;55930;47.412;8.790;2023-02-01T08:06:04;17.25;;;10.98;;
68888;SDS011;55930;47.412;8.790;2023-02-01T08:12:46;17.38;;;11.00;;
68888;SDS011;55930;47.412;8.790;2023-02-01T08:16:08;16.60;;;11.25;;
68888;SDS011;55930;47.412;8.790;2023-02-01T08:19:30;16.60;;;11.38;;
68888;SDS011;55930;47.412;8.790;2023-02-01T08:22:50;13.13;;;9.53;;
68888;SDS011;55930;47.412;8.790;2023-02-01T08:26:19;16.92;;;10.30;;
68888;SDS011;55930;47.412;8.790;2023-02-01T08:29:41;15.07;;;10.93;;
68888;SDS011;55930;47.412;8.790;2023-02-01T08:33:01;13.30;;;10.17;;
68888;SDS011;55930;47.412;8.790;2023-02-01T08:36:22;15.23;;;9.07;;
68888;SDS011;55930;47.412;8.790;2023-02-01T08:39:44;14.18;;;9.52;;
68888;SDS011;55930;47.412;8.790;2023-02-01T08:43:05;12.53;;;8.50;;
68888;SDS011;55930;47.412;8.790;2023-02-01T08:46:25;12.60;;;9.37;;
68888;SDS011;55930;47.412;8.790;2023-02-01T08:49:46;14.50;;;8.93;;
68888;SDS011;55930;47.412;8.790;2023-02-01T08:53:06;12.00;;;8.77;;
68888;SDS011;55930;47.412;8.790;2023-02-01T08:56:26;9.80;;;7.33;;
68888;SDS011;55930;47.412;8.790;2023-02-01T08:59:49;12.23;;;8.73;;
68888;SDS011;55930;47.412;8.790;2023-02-01T09:03:12;13.87;;;8.80;;
68888;SDS011;55930;47.412;8.790;2023-02-01T09:06:32;12.38;;;8.30;;
68888;SDS011;55930;47.412;8.790;2023-02-01T09:09:53;10.50;;;7.40;;
68888;SDS011;55930;47.412;8.790;2023-02-01T09:13:14;10.98;;;7.00;;
68888;SDS011;55930;47.412;8.790;2023-02-01T09:16:37;11.23;;;7.43;;
68888;SDS011;55930;47.412;8.790;2023-02-01T09:19:58;12.30;;;7.68;;
68888;SDS011;55930;47.412;8.790;2023-02-01T09:23:18;10.27;;;7.30;;
68888;SDS011;55930;47.412;8.790;2023-02-01T09:26:40;13.82;;;7.25;;
68888;SDS011;55930;47.412;8.790;2023-02-01T09:30:01;9.93;;;6.37;;
68888;SDS011;55930;47.412;8.790;2023-02-01T09:33:21;10.25;;;6.75;;
68888;SDS011;55930;47.412;8.790;2023-02-01T09:36:43;9.77;;;6.47;;
68888;SDS011;55930;47.412;8.790;2023-02-01T09:40:04;10.00;;;6.83;;
68888;SDS011;55930;47.412;8.790;2023-02-01T09:46:48;8.52;;;5.97;;
68888;SDS011;55930;47.412;8.790;2023-02-01T09:50:12;9.43;;;6.18;;
68888;SDS011;55930;47.412;8.790;2023-02-01T09:53:40;8.75;;;5.38;;
68888;SDS011;55930;47.412;8.790;2023-02-01T09:57:16;8.95;;;5.43;;
68888;SDS011;55930;47.412;8.790;2023-02-01T10:00:53;7.03;;;5.10;;
68888;SDS011;55930;47.412;8.790;2023-02-01T10:04:16;9.20;;;5.32;;
68888;SDS011;55930;47.412;8.790;2023-02-01T10:18:57;7.68;;;4.93;;
68888;SDS011;55930;47.412;8.790;2023-02-01T10:26:24;6.63;;;4.22;;
68888;SDS011;55930;47.412;8.790;2023-02-01T10:29:47;6.25;;;4.53;;
68888;SDS011;55930;47.412;8.790;2023-02-01T10:33:18;4.78;;;3.40;;
68888;SDS011;55930;47.412;8.790;2023-02-01T10:36:52;5.15;;;3.70;;
68888;SDS011;55930;47.412;8.790;2023-02-01T10:40:17;5.55;;;3.65;;
68888;SDS011;55930;47.412;8.790;2023-02-01T10:43:42;4.60;;;3.47;;
68888;SDS011;55930;47.412;8.790;2023-02-01T10:47:04;7.85;;;3.67;;
68888;SDS011;55930;47.412;8.790;2023-02-01T10:54:11;4.25;;;2.53;;
68888;SDS011;55930;47.412;8.790;2023-02-01T10:57:37;5.07;;;2.78;;
68888;SDS011;55930;47.412;8.790;2023-02-01T11:01:02;3.93;;;3.00;;
68888;SDS011;55930;47.412;8.790;2023-02-01T11:04:25;4.35;;;2.90;;
68888;SDS011;55930;47.412;8.790;2023-02-01T11:07:58;6.20;;;3.05;;
68888;SDS011;55930;47.412;8.790;2023-02-01T11:11:20;4.80;;;2.70;;
68888;SDS011;55930;47.412;8.790;2023-02-01T11:14:59;3.58;;;2.60;;
68888;SDS011;55930;47.412;8.790;2023-02-01T11:18:41;5.35;;;2.70;;
68888;SDS011;55930;47.412;8.790;2023-02-01T11:22:03;6.60;;;2.90;;
68888;SDS011;55930;47.412;8.790;2023-02-01T11:25:32;3.90;;;2.90;;
68888;SDS011;55930;47.412;8.790;2023-02-01T11:28:57;5.32;;;2.90;;
68888;SDS011;55930;47.412;8.790;2023-02-01T11:32:22;3.10;;;2.65;;
68888;SDS011;55930;47.412;8.790;2023-02-01T11:35:51;4.57;;;3.10;;
68888;SDS011;55930;47.412;8.790;2023-02-01T11:42:32;4.40;;;2.47;;
68888;SDS011;55930;47.412;8.790;2023-02-01T11:46:00;3.63;;;2.40;;
68888;SDS011;55930;47.412;8.790;2023-02-01T11:49:23;3.65;;;2.67;;
68888;SDS011;55930;47.412;8.790;2023-02-01T11:56:32;3.67;;;1.95;;
68888;SDS011;55930;47.412;8.790;2023-02-01T12:07:37;6.03;;;2.58;;
68888;SDS011;55930;47.412;8.790;2023-02-01T12:22:29;4.22;;;2.47;;
68888;SDS011;55930;47.412;8.790;2023-02-01T12:47:59;6.53;;;3.50;;
68888;SDS011;55930;47.412;8.790;2023-02-01T12:51:31;3.85;;;2.80;;
68888;SDS011;55930;47.412;8.790;2023-02-01T12:58:46;6.10;;;3.65;;
68888;SDS011;55930;47.412;8.790;2023-02-01T13:02:15;8.52;;;2.83;;
68888;SDS011;55930;47.412;8.790;2023-02-01T13:05:45;4.15;;;2.70;;
68888;SDS011;55930;47.412;8.790;2023-02-01T13:09:22;5.00;;;3.50;;
68888;SDS011;55930;47.412;8.790;2023-02-01T13:13:16;13.77;;;12.77;;
68888;SDS011;55930;47.412;8.790;2023-02-01T13:16:43;8.13;;;4.25;;
68888;SDS011;55930;47.412;8.790;2023-02-01T13:24:00;5.93;;;2.30;;
68888;SDS011;55930;47.412;8.790;2023-02-01T13:27:26;4.75;;;2.30;;
68888;SDS011;55930;47.412;8.790;2023-02-01T13:35:02;3.90;;;2.58;;
68888;SDS011;55930;47.412;8.790;2023-02-01T13:42:51;4.70;;;2.47;;
68888;SDS011;55930;47.412;8.790;2023-02-01T13:46:16;6.40;;;3.53;;
68888;SDS011;55930;47.412;8.790;2023-02-01T13:53:00;3.78;;;2.10;;
68888;SDS011;55930;47.412;8.790;2023-02-01T13:56:25;7.20;;;2.47;;
68888;SDS011;55930;47.412;8.790;2023-02-01T13:59:50;2.95;;;2.22;;
68888;SDS011;55930;47.412;8.790;2023-02-01T14:03:13;5.00;;;2.17;;
68888;SDS011;55930;47.412;8.790;2023-02-01T14:06:51;5.53;;;2.15;;
68888;SDS011;55930;47.412;8.790;2023-02-01T14:17:38;7.13;;;1.90;;
68888;SDS011;55930;47.412;8.790;2023-02-01T14:21:20;5.72;;;1.90;;
68888;SDS011;55930;47.412;8.790;2023-02-01T14:24:52;4.72;;;1.52;;
68888;SDS011;55930;47.412;8.790;2023-02-01T14:28:23;8.02;;;1.80;;
68888;SDS011;55930;47.412;8.790;2023-02-01T14:35:25;4.18;;;1.90;;
68888;SDS011;55930;47.412;8.790;2023-02-01T14:38:48;5.85;;;2.17;;
68888;SDS011;55930;47.412;8.790;2023-02-01T14:42:32;3.60;;;1.45;;
68888;SDS011;55930;47.412;8.790;2023-02-01T14:45:59;4.15;;;1.40;;
68888;SDS011;55930;47.412;8.790;2023-02-01T14:49:19;5.17;;;1.80;;
68888;SDS011;55930;47.412;8.790;2023-02-01T14:52:41;4.80;;;1.73;;
68888;SDS011;55930;47.412;8.790;2023-02-01T14:56:18;4.95;;;1.70;;
68888;SDS011;55930;47.412;8.790;2023-02-01T14:59:41;5.45;;;1.70;;
68888;SDS011;55930;47.412;8.790;2023-02-01T15:03:15;5.93;;;2.00;;
68888;SDS011;55930;47.412;8.790;2023-02-01T15:06:41;4.57;;;1.38;;
68888;SDS011;55930;47.412;8.790;2023-02-01T15:10:04;4.60;;;1.60;;
68888;SDS011;55930;47.412;8.790;2023-02-01T15:13:26;5.45;;;1.67;;
68888;SDS011;55930;47.412;8.790;2023-02-01T15:16:47;7.82;;;1.60;;
68888;SDS011;55930;47.412;8.790;2023-02-01T15:20:17;5.60;;;1.70;;
68888;SDS011;55930;47.412;8.790;2023-02-01T15:23:41;4.72;;;1.83;;
68888;SDS011;55930;47.412;8.790;2023-02-01T15:27:02;8.57;;;1.80;;
68888;SDS011;55930;47.412;8.790;2023-02-01T15:30:26;5.00;;;1.67;;
68888;SDS011;55930;47.412;8.790;2023-02-01T15:33:57;6.05;;;2.10;;
68888;SDS011;55930;47.412;8.790;2023-02-01T15:37:20;6.72;;;2.60;;
68888;SDS011;55930;47.412;8.790;2023-02-01T15:48:11;6.97;;;1.92;;
68888;SDS011;55930;47.412;8.790;2023-02-01T15:51:43;4.35;;;1.83;;
68888;SDS011;55930;47.412;8.790;2023-02-01T15:55:20;7.75;;;2.40;;
68888;SDS011;55930;47.412;8.790;2023-02-01T15:58:44;9.43;;;2.30;;
68888;SDS011;55930;47.412;8.790;2023-02-01T16:05:54;7.70;;;2.47;;
68888;SDS011;55930;47.412;8.790;2023-02-01T16:09:19;9.55;;;2.30;;
68888;SDS011;55930;47.412;8.790;2023-02-01T16:16:02;8.83;;;2.20;;
68888;SDS011;55930;47.412;8.790;2023-02-01T16:19:27;11.30;;;2.70;;
68888;SDS011;55930;47.412;8.790;2023-02-01T16:22:48;7.37;;;2.50;;
68888;SDS011;55930;47.412;8.790;2023-02-01T16:26:08;9.40;;;2.00;;
68888;SDS011;55930;47.412;8.790;2023-02-01T16:29:36;11.82;;;2.60;;
68888;SDS011;55930;47.412;8.790;2023-02-01T16:32:57;7.90;;;2.43;;
68888;SDS011;55930;47.412;8.790;2023-02-01T16:36:19;8.13;;;2.45;;
68888;SDS011;55930;47.412;8.790;2023-02-01T16:39:44;5.53;;;2.30;;
68888;SDS011;55930;47.412;8.790;2023-02-01T16:43:13;6.40;;;2.05;;
68888;SDS011;55930;47.412;8.790;2023-02-01T16:46:39;9.48;;;2.55;;
68888;SDS011;55930;47.412;8.790;2023-02-01T16:50:03;7.38;;;2.00;;
68888;SDS011;55930;47.412;8.790;2023-02-01T16:53:24;8.82;;;2.50;;
68888;SDS011;55930;47.412;8.790;2023-02-01T16:56:47;5.75;;;2.33;;
68888;SDS011;55930;47.412;8.790;2023-02-01T17:00:08;6.00;;;2.10;;
68888;SDS011;55930;47.412;8.790;2023-02-01T17:03:32;8.07;;;2.58;;
68888;SDS011;55930;47.412;8.790;2023-02-01T17:06:55;7.40;;;2.20;;
68888;SDS011;55930;47.412;8.790;2023-02-01T17:10:25;8.93;;;2.80;;
68888;SDS011;55930;47.412;8.790;2023-02-01T17:13:47;7.13;;;2.22;;
68888;SDS011;55930;47.412;8.790;2023-02-01T17:17:07;6.78;;;2.40;;
68888;SDS011;55930;47.412;8.790;2023-02-01T17:20:30;9.88;;;2.20;;
68888;SDS011;55930;47.412;8.790;2023-02-01T17:23:51;6.43;;;2.20;;
68888;SDS011;55930;47.412;8.790;2023-02-01T17:27:12;9.67;;;2.43;;
68888;SDS011;55930;47.412;8.790;2023-02-01T17:30:33;8.73;;;2.20;;
68888;SDS011;55930;47.412;8.790;2023-02-01T17:33:54;5.60;;;2.80;;
68888;SDS011;55930;47.412;8.790;2023-02-01T17:37:18;4.10;;;2.30;;
68888;SDS011;55930;47.412;8.790;2023-02-01T17:40:43;6.88;;;2.22;;
68888;SDS011;55930;47.412;8.790;2023-02-01T17:44:04;7.90;;;2.50;;
68888;SDS011;55930;47.412;8.790;2023-02-01T17:47:24;4.97;;;2.23;;
68888;SDS011;55930;47.412;8.790;2023-02-01T17:50:45;8.03;;;2.10;;
68888;SDS011;55930;47.412;8.790;2023-02-01T17:54:12;9.50;;;2.47;;
68888;SDS011;55930;47.412;8.790;2023-02-01T17:57:33;6.00;;;1.92;;
68888;SDS011;55930;47.412;8.790;2023-02-01T18:00:56;7.60;;;1.90;;
68888;SDS011;55930;47.412;8.790;2023-02-01T18:04:17;7.93;;;2.33;;
68888;SDS011;55930;47.412;8.790;2023-02-01T18:07:38;5.47;;;2.40;;
68888;SDS011;55930;47.412;8.790;2023-02-01T18:11:01;5.63;;;2.40;;
68888;SDS011;55930;47.412;8.790;2023-02-01T18:14:21;8.40;;;2.27;;
68888;SDS011;55930;47.412;8.790;2023-02-01T18:17:43;5.45;;;2.20;;
68888;SDS011;55930;47.412;8.790;2023-02-01T18:21:03;5.00;;;2.13;;
68888;SDS011;55930;47.412;8.790;2023-02-01T18:24:24;6.30;;;2.20;;
68888;SDS011;55930;47.412;8.790;2023-02-01T18:27:46;7.18;;;2.17;;
68888;SDS011;55930;47.412;8.790;2023-02-01T18:31:16;6.88;;;2.20;;
68888;SDS011;55930;47.412;8.790;2023-02-01T18:38:00;5.22;;;1.65;;
68888;SDS011;55930;47.412;8.790;2023-02-01T18:41:21;8.23;;;2.40;;
68888;SDS011;55930;47.412;8.790;2023-02-01T18:44:42;7.43;;;2.17;;
68888;SDS011;55930;47.412;8.790;2023-02-01T18:48:03;9.80;;;2.30;;
68888;SDS011;55930;47.412;8.790;2023-02-01T18:51:26;5.93;;;2.20;;
68888;SDS011;55930;47.412;8.790;2023-02-01T18:54:47;7.63;;;2.27;;
68888;SDS011;55930;47.412;8.790;2023-02-01T18:58:09;5.63;;;2.10;;
68888;SDS011;55930;47.412;8.790;2023-02-01T19:01:32;8.52;;;2.40;;
68888;SDS011;55930;47.412;8.790;2023-02-01T19:04:52;5.23;;;2.20;;
68888;SDS011;55930;47.412;8.790;2023-02-01T19:08:13;8.33;;;2.50;;
68888;SDS011;55930;47.412;8.790;2023-02-01T19:11:33;8.90;;;2.30;;
68888;SDS011;55930;47.412;8.790;2023-02-01T19:14:54;7.23;;;2.40;;
68888;SDS011;55930;47.412;8.790;2023-02-01T19:18:16;10.57;;;2.72;;
68888;SDS011;55930;47.412;8.790;2023-02-01T19:21:39;5.95;;;1.92;;
68888;SDS011;55930;47.412;8.790;2023-02-01T19:24:59;9.10;;;2.43;;
68888;SDS011;55930;47.412;8.790;2023-02-01T19:28:20;10.17;;;2.80;;
68888;SDS011;55930;47.412;8.790;2023-02-01T19:31:40;7.77;;;2.13;;
68888;SDS011;55930;47.412;8.790;2023-02-01T19:35:03;11.43;;;4.65;;
68888;SDS011;55930;47.412;8.790;2023-02-01T19:41:45;6.77;;;2.80;;
68888;SDS011;55930;47.412;8.790;2023-02-01T19:45:06;8.40;;;2.60;;
68888;SDS011;55930;47.412;8.790;2023-02-01T19:48:27;8.48;;;2.13;;
68888;SDS011;55930;47.412;8.790;2023-02-01T19:51:48;7.55;;;2.33;;
68888;SDS011;55930;47.412;8.790;2023-02-01T19:55:08;8.87;;;2.40;;
68888;SDS011;55930;47.412;8.790;2023-02-01T19:58:29;5.53;;;2.00;;
68888;SDS011;55930;47.412;8.790;2023-02-01T20:01:49;9.80;;;2.23;;
68888;SDS011;55930;47.412;8.790;2023-02-01T20:05:11;12.13;;;2.42;;
68888;SDS011;55930;47.412;8.790;2023-02-01T20:08:31;6.60;;;2.60;;
68888;SDS011;55930;47.412;8.790;2023-02-01T20:11:52;6.67;;;2.37;;
68888;SDS011;55930;47.412;8.790;2023-02-01T20:15:15;8.02;;;2.10;;
68888;SDS011;55930;47.412;8.790;2023-02-01T20:18:36;6.00;;;2.07;;
68888;SDS011;55930;47.412;8.790;2023-02-01T20:21:59;5.72;;;2.53;;
68888;SDS011;55930;47.412;8.790;2023-02-01T20:25:19;7.30;;;1.87;;
68888;SDS011;55930;47.412;8.790;2023-02-01T20:28:40;7.57;;;2.50;;
68888;SDS011;55930;47.412;8.790;2023-02-01T20:32:13;5.30;;;1.50;;
68888;SDS011;55930;47.412;8.790;2023-02-01T20:35:34;3.13;;;1.42;;
68888;SDS011;55930;47.412;8.790;2023-02-01T20:38:55;4.53;;;1.70;;
68888;SDS011;55930;47.412;8.790;2023-02-01T20:42:18;5.45;;;1.90;;
68888;SDS011;55930;47.412;8.790;2023-02-01T20:45:42;5.20;;;2.38;;
68888;SDS011;55930;47.412;8.790;2023-02-01T20:49:03;9.15;;;1.80;;
68888;SDS011;55930;47.412;8.790;2023-02-01T20:52:40;7.00;;;1.58;;
68888;SDS011;55930;47.412;8.790;2023-02-01T20:56:04;8.13;;;1.73;;
68888;SDS011;55930;47.412;8.790;2023-02-01T20:59:25;8.48;;;2.25;;
68888;SDS011;55930;47.412;8.790;2023-02-01T21:02:45;4.57;;;2.00;;
68888;SDS011;55930;47.412;8.790;2023-02-01T21:06:06;5.10;;;2.13;;
68888;SDS011;55930;47.412;8.790;2023-02-01T21:09:31;7.10;;;2.40;;
68888;SDS011;55930;47.412;8.790;2023-02-01T21:12:54;3.90;;;1.60;;
68888;SDS011;55930;47.412;8.790;2023-02-01T21:16:15;5.70;;;2.00;;
68888;SDS011;55930;47.412;8.790;2023-02-01T21:19:36;9.50;;;2.20;;
68888;SDS011;55930;47.412;8.790;2023-02-01T21:23:02;8.57;;;2.10;;
68888;SDS011;55930;47.412;8.790;2023-02-01T21:26:23;7.97;;;2.00;;
68888;SDS011;55930;47.412;8.790;2023-02-01T21:29:49;6.95;;;1.83;;
68888;SDS011;55930;47.412;8.790;2023-02-01T21:33:09;7.07;;;1.80;;
68888;SDS011;55930;47.412;8.790;2023-02-01T21:36:30;8.60;;;2.07;;
68888;SDS011;55930;47.412;8.790;2023-02-01T21:39:56;7.85;;;2.00;;
68888;SDS011;55930;47.412;8.790;2023-02-01T21:43:17;6.80;;;2.20;;
68888;SDS011;55930;47.412;8.790;2023-02-01T21:46:37;10.13;;;2.60;;
68888;SDS011;55930;47.412;8.790;2023-02-01T21:49:57;10.63;;;2.37;;
68888;SDS011;55930;47.412;8.790;2023-02-01T21:53:18;9.57;;;2.10;;
68888;SDS011;55930;47.412;8.790;2023-02-01T21:56:38;4.97;;;2.50;;
68888;SDS011;55930;47.412;8.790;2023-02-01T22:00:02;9.60;;;2.40;;
68888;SDS011;55930;47.412;8.790;2023-02-01T22:03:27;7.30;;;2.45;;
68888;SDS011;55930;47.412;8.790;2023-02-01T22:06:47;10.97;;;2.53;;
68888;SDS011;55930;47.412;8.790;2023-02-01T22:10:08;7.20;;;2.63;;
68888;SDS011;55930;47.412;8.790;2023-02-01T22:13:31;5.72;;;2.10;;
68888;SDS011;55930;47.412;8.790;2023-02-01T22:16:51;11.37;;;2.43;;
68888;SDS011;55930;47.412;8.790;2023-02-01T22:20:14;6.45;;;2.00;;
68888;SDS011;55930;47.412;8.790;2023-02-01T22:23:37;5.50;;;1.87;;
68888;SDS011;55930;47.412;8.790;2023-02-01T22:26:58;8.40;;;2.28;;
68888;SDS011;55930;47.412;8.790;2023-02-01T22:30:18;6.80;;;2.40;;
68888;SDS011;55930;47.412;8.790;2023-02-01T22:33:39;7.37;;;2.13;;
68888;SDS011;55930;47.412;8.790;2023-02-01T22:36:59;6.20;;;2.23;;
68888;SDS011;55930;47.412;8.790;2023-02-01T22:40:19;8.20;;;3.00;;
68888;SDS011;55930;47.412;8.790;2023-02-01T22:43:40;5.67;;;2.37;;
68888;SDS011;55930;47.412;8.790;2023-02-01T22:47:03;5.25;;;2.10;;
68888;SDS011;55930;47.412;8.790;2023-02-01T22:50:26;11.18;;;2.45;;